sensor_id;sensor_type;location;lat;lon;timestamp;P1;durP1;ratioP1;P2;durP2;ratioP2
78612;SDS011;67933;51.060;3.638;2023-12-07T00:00:16;71.78;;;12.68;;
78612;SDS011;67933;51.060;3.638;2023-12-07T00:02:41;75.13;;;12.20;;
78612;SDS011;67933;51.060;3.638;2023-12-07T00:05:07;64.85;;;14.35;;
78612;SDS011;67933;51.060;3.638;2023-12-07T00:07:33;73.20;;;13.23;;
78612;SDS011;67933;51.060;3.638;2023-12-07T00:09:58;56.08;;;13.63;;
78612;SDS011;67933;51.060;3.638;2023-12-07T00:12:24;60.08;;;12.93;;
78612;SDS011;67933;51.060;3.638;2023-12-07T00:14:49;51.75;;;12.95;;
78612;SDS011;67933;51.060;3.638;2023-12-07T00:17:14;43.30;;;12.13;;
78612;SDS011;67933;51.060;3.638;2023-12-07T00:19:40;60.58;;;13.32;;
78612;SDS011;67933;51.060;3.638;2023-12-07T00:22:05;63.95;;;14.10;;
78612;SDS011;67933;51.060;3.638;2023-12-07T00:24:30;54.03;;;14.15;;
78612;SDS011;67933;51.060;3.638;2023-12-07T00:26:56;69.22;;;13.50;;
78612;SDS011;67933;51.060;3.638;2023-12-07T00:29:21;60.25;;;14.02;;
78612;SDS011;67933;51.060;3.638;2023-12-07T00:31:47;74.30;;;14.15;;
78612;SDS011;67933;51.060;3.638;2023-12-07T00:34:12;74.43;;;13.60;;
78612;SDS011;67933;51.060;3.638;2023-12-07T00:36:37;73.68;;;14.10;;
78612;SDS011;67933;51.060;3.638;2023-12-07T00:39:06;56.33;;;14.63;;
78612;SDS011;67933;51.060;3.638;2023-12-07T00:41:31;49.25;;;15.23;;
78612;SDS011;67933;51.060;3.638;2023-12-07T00:43:57;57.90;;;15.48;;
78612;SDS011;67933;51.060;3.638;2023-12-07T00:46:22;59.55;;;13.88;;
78612;SDS011;67933;51.060;3.638;2023-12-07T00:48:48;57.67;;;14.80;;
78612;SDS011;67933;51.060;3.638;2023-12-07T00:51:13;68.13;;;14.55;;
78612;SDS011;67933;51.060;3.638;2023-12-07T00:53:40;62.85;;;14.27;;
78612;SDS011;67933;51.060;3.638;2023-12-07T00:56:05;53.20;;;12.10;;
78612;SDS011;67933;51.060;3.638;2023-12-07T00:58:31;45.22;;;13.68;;
78612;SDS011;67933;51.060;3.638;2023-12-07T01:00:57;61.20;;;15.63;;
78612;SDS011;67933;51.060;3.638;2023-12-07T01:03:22;93.88;;;16.00;;
78612;SDS011;67933;51.060;3.638;2023-12-07T01:05:48;57.13;;;14.75;;
78612;SDS011;67933;51.060;3.638;2023-12-07T01:08:13;70.45;;;16.20;;
78612;SDS011;67933;51.060;3.638;2023-12-07T01:10:38;53.25;;;14.75;;
78612;SDS011;67933;51.060;3.638;2023-12-07T01:13:04;43.83;;;13.60;;
78612;SDS011;67933;51.060;3.638;2023-12-07T01:15:29;51.38;;;14.27;;
78612;SDS011;67933;51.060;3.638;2023-12-07T01:17:54;45.65;;;13.30;;
78612;SDS011;67933;51.060;3.638;2023-12-07T01:20:20;45.28;;;12.50;;
78612;SDS011;67933;51.060;3.638;2023-12-07T01:22:45;45.22;;;12.60;;
78612;SDS011;67933;51.060;3.638;2023-12-07T01:25:11;49.65;;;13.52;;
78612;SDS011;67933;51.060;3.638;2023-12-07T01:27:36;50.28;;;13.35;;
78612;SDS011;67933;51.060;3.638;2023-12-07T01:30:02;49.78;;;13.50;;
78612;SDS011;67933;51.060;3.638;2023-12-07T01:32:28;44.00;;;13.07;;
78612;SDS011;67933;51.060;3.638;2023-12-07T01:34:54;45.72;;;11.63;;
78612;SDS011;67933;51.060;3.638;2023-12-07T01:37:20;57.45;;;13.10;;
78612;SDS011;67933;51.060;3.638;2023-12-07T01:39:45;49.20;;;11.40;;
78612;SDS011;67933;51.060;3.638;2023-12-07T01:42:10;49.05;;;11.93;;
78612;SDS011;67933;51.060;3.638;2023-12-07T01:44:37;46.60;;;13.85;;
78612;SDS011;67933;51.060;3.638;2023-12-07T01:47:04;55.92;;;12.60;;
78612;SDS011;67933;51.060;3.638;2023-12-07T01:49:32;50.85;;;12.38;;
78612;SDS011;67933;51.060;3.638;2023-12-07T01:51:59;51.45;;;13.18;;
78612;SDS011;67933;51.060;3.638;2023-12-07T01:54:24;59.38;;;14.25;;
78612;SDS011;67933;51.060;3.638;2023-12-07T01:56:50;48.60;;;13.13;;
78612;SDS011;67933;51.060;3.638;2023-12-07T01:59:17;54.03;;;14.48;;
78612;SDS011;67933;51.060;3.638;2023-12-07T02:01:42;62.92;;;15.00;;
78612;SDS011;67933;51.060;3.638;2023-12-07T02:04:09;56.92;;;14.57;;
78612;SDS011;67933;51.060;3.638;2023-12-07T02:06:35;54.92;;;13.70;;
78612;SDS011;67933;51.060;3.638;2023-12-07T02:09:00;61.25;;;15.23;;
78612;SDS011;67933;51.060;3.638;2023-12-07T02:11:26;55.35;;;14.70;;
78612;SDS011;67933;51.060;3.638;2023-12-07T02:13:52;50.72;;;15.10;;
78612;SDS011;67933;51.060;3.638;2023-12-07T02:18:55;53.22;;;15.27;;
78612;SDS011;67933;51.060;3.638;2023-12-07T02:21:50;53.03;;;14.90;;
78612;SDS011;67933;51.060;3.638;2023-12-07T02:24:21;47.42;;;13.30;;
78612;SDS011;67933;51.060;3.638;2023-12-07T02:26:47;54.70;;;14.73;;
78612;SDS011;67933;51.060;3.638;2023-12-07T02:29:13;50.67;;;13.73;;
78612;SDS011;67933;51.060;3.638;2023-12-07T02:31:39;50.95;;;15.38;;
78612;SDS011;67933;51.060;3.638;2023-12-07T02:34:05;49.88;;;13.70;;
78612;SDS011;67933;51.060;3.638;2023-12-07T02:36:30;43.38;;;13.23;;
78612;SDS011;67933;51.060;3.638;2023-12-07T02:38:59;47.20;;;14.75;;
78612;SDS011;67933;51.060;3.638;2023-12-07T02:41:28;51.65;;;12.98;;
78612;SDS011;67933;51.060;3.638;2023-12-07T02:43:56;54.33;;;15.48;;
78612;SDS011;67933;51.060;3.638;2023-12-07T02:46:22;61.88;;;15.43;;
78612;SDS011;67933;51.060;3.638;2023-12-07T02:48:49;55.20;;;14.57;;
78612;SDS011;67933;51.060;3.638;2023-12-07T02:51:14;47.30;;;12.75;;
78612;SDS011;67933;51.060;3.638;2023-12-07T02:53:40;54.90;;;16.85;;
78612;SDS011;67933;51.060;3.638;2023-12-07T02:56:05;46.97;;;16.40;;
78612;SDS011;67933;51.060;3.638;2023-12-07T02:58:31;53.95;;;14.38;;
78612;SDS011;67933;51.060;3.638;2023-12-07T03:00:56;43.50;;;13.40;;
78612;SDS011;67933;51.060;3.638;2023-12-07T03:03:22;50.72;;;13.77;;
78612;SDS011;67933;51.060;3.638;2023-12-07T03:05:47;49.58;;;14.20;;
78612;SDS011;67933;51.060;3.638;2023-12-07T03:08:12;53.28;;;14.52;;
78612;SDS011;67933;51.060;3.638;2023-12-07T03:10:38;49.22;;;13.88;;
78612;SDS011;67933;51.060;3.638;2023-12-07T03:13:03;46.70;;;12.90;;
78612;SDS011;67933;51.060;3.638;2023-12-07T03:15:29;51.10;;;14.23;;
78612;SDS011;67933;51.060;3.638;2023-12-07T03:17:54;46.05;;;14.55;;
78612;SDS011;67933;51.060;3.638;2023-12-07T03:20:20;49.17;;;13.90;;
78612;SDS011;67933;51.060;3.638;2023-12-07T03:22:46;40.13;;;13.48;;
78612;SDS011;67933;51.060;3.638;2023-12-07T03:25:11;48.15;;;14.02;;
78612;SDS011;67933;51.060;3.638;2023-12-07T03:27:36;47.58;;;14.65;;
78612;SDS011;67933;51.060;3.638;2023-12-07T03:30:02;50.97;;;14.35;;
78612;SDS011;67933;51.060;3.638;2023-12-07T03:32:28;54.05;;;16.52;;
78612;SDS011;67933;51.060;3.638;2023-12-07T03:34:53;49.13;;;13.25;;
78612;SDS011;67933;51.060;3.638;2023-12-07T03:37:18;50.40;;;15.07;;
78612;SDS011;67933;51.060;3.638;2023-12-07T03:39:44;44.58;;;13.35;;
78612;SDS011;67933;51.060;3.638;2023-12-07T03:42:09;47.10;;;14.88;;
78612;SDS011;67933;51.060;3.638;2023-12-07T03:44:34;49.65;;;14.82;;
78612;SDS011;67933;51.060;3.638;2023-12-07T03:47:00;52.28;;;14.57;;
78612;SDS011;67933;51.060;3.638;2023-12-07T03:49:26;42.45;;;12.75;;
78612;SDS011;67933;51.060;3.638;2023-12-07T03:51:51;51.50;;;14.30;;
78612;SDS011;67933;51.060;3.638;2023-12-07T03:54:17;47.83;;;14.30;;
78612;SDS011;67933;51.060;3.638;2023-12-07T03:56:42;50.88;;;15.05;;
78612;SDS011;67933;51.060;3.638;2023-12-07T03:59:08;52.60;;;15.45;;
78612;SDS011;67933;51.060;3.638;2023-12-07T04:01:33;52.45;;;15.68;;
78612;SDS011;67933;51.060;3.638;2023-12-07T04:03:59;49.92;;;15.30;;
78612;SDS011;67933;51.060;3.638;2023-12-07T04:06:25;49.55;;;15.55;;
78612;SDS011;67933;51.060;3.638;2023-12-07T04:08:51;50.90;;;17.15;;
78612;SDS011;67933;51.060;3.638;2023-12-07T04:11:17;52.25;;;15.77;;
78612;SDS011;67933;51.060;3.638;2023-12-07T04:13:43;53.00;;;15.20;;
78612;SDS011;67933;51.060;3.638;2023-12-07T04:16:10;55.35;;;16.40;;
78612;SDS011;67933;51.060;3.638;2023-12-07T04:18:36;61.47;;;16.30;;
78612;SDS011;67933;51.060;3.638;2023-12-07T04:21:02;53.60;;;15.50;;
78612;SDS011;67933;51.060;3.638;2023-12-07T04:23:29;47.78;;;14.55;;
78612;SDS011;67933;51.060;3.638;2023-12-07T04:25:55;46.65;;;12.93;;
78612;SDS011;67933;51.060;3.638;2023-12-07T04:28:20;52.92;;;15.80;;
78612;SDS011;67933;51.060;3.638;2023-12-07T04:30:45;52.60;;;13.73;;
78612;SDS011;67933;51.060;3.638;2023-12-07T04:33:11;48.22;;;15.15;;
78612;SDS011;67933;51.060;3.638;2023-12-07T04:35:36;46.95;;;14.43;;
78612;SDS011;67933;51.060;3.638;2023-12-07T04:38:02;44.30;;;14.68;;
78612;SDS011;67933;51.060;3.638;2023-12-07T04:40:27;46.35;;;14.30;;
78612;SDS011;67933;51.060;3.638;2023-12-07T04:42:53;49.58;;;14.50;;
78612;SDS011;67933;51.060;3.638;2023-12-07T04:45:18;50.05;;;14.60;;
78612;SDS011;67933;51.060;3.638;2023-12-07T04:47:45;45.92;;;14.02;;
78612;SDS011;67933;51.060;3.638;2023-12-07T04:50:10;41.38;;;12.75;;
78612;SDS011;67933;51.060;3.638;2023-12-07T04:52:36;47.67;;;13.13;;
78612;SDS011;67933;51.060;3.638;2023-12-07T04:55:01;50.53;;;15.18;;
78612;SDS011;67933;51.060;3.638;2023-12-07T04:57:27;50.50;;;16.33;;
78612;SDS011;67933;51.060;3.638;2023-12-07T04:59:52;48.17;;;14.75;;
78612;SDS011;67933;51.060;3.638;2023-12-07T05:02:17;54.15;;;16.80;;
78612;SDS011;67933;51.060;3.638;2023-12-07T05:04:43;44.35;;;14.52;;
78612;SDS011;67933;51.060;3.638;2023-12-07T05:07:10;45.03;;;15.48;;
78612;SDS011;67933;51.060;3.638;2023-12-07T05:09:37;53.08;;;15.80;;
78612;SDS011;67933;51.060;3.638;2023-12-07T05:12:03;45.50;;;15.35;;
78612;SDS011;67933;51.060;3.638;2023-12-07T05:14:31;48.92;;;15.95;;
78612;SDS011;67933;51.060;3.638;2023-12-07T05:16:57;41.33;;;14.52;;
78612;SDS011;67933;51.060;3.638;2023-12-07T05:19:23;46.47;;;16.00;;
78612;SDS011;67933;51.060;3.638;2023-12-07T05:21:49;43.55;;;14.32;;
78612;SDS011;67933;51.060;3.638;2023-12-07T05:24:14;42.92;;;14.95;;
78612;SDS011;67933;51.060;3.638;2023-12-07T05:26:40;45.92;;;15.30;;
78612;SDS011;67933;51.060;3.638;2023-12-07T05:29:08;41.72;;;16.55;;
78612;SDS011;67933;51.060;3.638;2023-12-07T05:31:33;49.83;;;17.08;;
78612;SDS011;67933;51.060;3.638;2023-12-07T05:34:00;42.28;;;14.98;;
78612;SDS011;67933;51.060;3.638;2023-12-07T05:36:26;49.72;;;16.33;;
78612;SDS011;67933;51.060;3.638;2023-12-07T05:38:51;52.45;;;17.65;;
78612;SDS011;67933;51.060;3.638;2023-12-07T05:41:16;47.92;;;17.35;;
78612;SDS011;67933;51.060;3.638;2023-12-07T05:43:42;52.17;;;18.50;;
78612;SDS011;67933;51.060;3.638;2023-12-07T05:46:07;50.30;;;16.83;;
78612;SDS011;67933;51.060;3.638;2023-12-07T05:48:33;52.13;;;17.38;;
78612;SDS011;67933;51.060;3.638;2023-12-07T05:50:58;51.92;;;18.17;;
78612;SDS011;67933;51.060;3.638;2023-12-07T05:53:24;53.70;;;18.02;;
78612;SDS011;67933;51.060;3.638;2023-12-07T05:55:49;49.35;;;17.88;;
78612;SDS011;67933;51.060;3.638;2023-12-07T05:58:15;47.20;;;16.63;;
78612;SDS011;67933;51.060;3.638;2023-12-07T06:00:43;46.92;;;16.70;;
78612;SDS011;67933;51.060;3.638;2023-12-07T06:03:08;54.88;;;17.92;;
78612;SDS011;67933;51.060;3.638;2023-12-07T06:05:36;45.47;;;16.65;;
78612;SDS011;67933;51.060;3.638;2023-12-07T06:08:04;43.50;;;16.48;;
78612;SDS011;67933;51.060;3.638;2023-12-07T06:10:31;44.05;;;16.50;;
78612;SDS011;67933;51.060;3.638;2023-12-07T06:12:57;46.03;;;16.17;;
78612;SDS011;67933;51.060;3.638;2023-12-07T06:15:24;47.05;;;16.67;;
78612;SDS011;67933;51.060;3.638;2023-12-07T06:17:49;40.17;;;14.85;;
78612;SDS011;67933;51.060;3.638;2023-12-07T06:20:15;48.60;;;16.17;;
78612;SDS011;67933;51.060;3.638;2023-12-07T06:22:40;41.90;;;15.82;;
78612;SDS011;67933;51.060;3.638;2023-12-07T06:25:06;43.25;;;16.00;;
78612;SDS011;67933;51.060;3.638;2023-12-07T06:27:33;50.70;;;16.58;;
78612;SDS011;67933;51.060;3.638;2023-12-07T06:30:00;41.08;;;15.02;;
78612;SDS011;67933;51.060;3.638;2023-12-07T06:32:25;38.05;;;15.82;;
78612;SDS011;67933;51.060;3.638;2023-12-07T06:34:51;40.55;;;14.77;;
78612;SDS011;67933;51.060;3.638;2023-12-07T06:37:16;43.17;;;16.08;;
78612;SDS011;67933;51.060;3.638;2023-12-07T06:39:42;44.15;;;16.17;;
78612;SDS011;67933;51.060;3.638;2023-12-07T06:42:08;37.97;;;15.35;;
78612;SDS011;67933;51.060;3.638;2023-12-07T06:44:33;34.58;;;14.38;;
78612;SDS011;67933;51.060;3.638;2023-12-07T06:46:58;41.80;;;15.93;;
78612;SDS011;67933;51.060;3.638;2023-12-07T06:49:24;39.28;;;13.63;;
78612;SDS011;67933;51.060;3.638;2023-12-07T06:51:49;36.28;;;14.55;;
78612;SDS011;67933;51.060;3.638;2023-12-07T06:54:15;33.25;;;14.93;;
78612;SDS011;67933;51.060;3.638;2023-12-07T06:56:40;38.03;;;14.32;;
78612;SDS011;67933;51.060;3.638;2023-12-07T06:59:05;36.85;;;13.80;;
78612;SDS011;67933;51.060;3.638;2023-12-07T07:01:31;36.38;;;14.02;;
78612;SDS011;67933;51.060;3.638;2023-12-07T07:03:56;32.83;;;12.90;;
78612;SDS011;67933;51.060;3.638;2023-12-07T07:06:21;33.42;;;12.48;;
78612;SDS011;67933;51.060;3.638;2023-12-07T07:08:47;33.55;;;13.75;;
78612;SDS011;67933;51.060;3.638;2023-12-07T07:11:14;29.80;;;13.93;;
78612;SDS011;67933;51.060;3.638;2023-12-07T07:13:40;36.75;;;13.75;;
78612;SDS011;67933;51.060;3.638;2023-12-07T07:16:07;35.67;;;15.20;;
78612;SDS011;67933;51.060;3.638;2023-12-07T07:18:33;37.05;;;14.27;;
78612;SDS011;67933;51.060;3.638;2023-12-07T07:20:59;33.13;;;14.20;;
78612;SDS011;67933;51.060;3.638;2023-12-07T07:23:24;32.03;;;13.43;;
78612;SDS011;67933;51.060;3.638;2023-12-07T07:25:50;31.17;;;13.45;;
78612;SDS011;67933;51.060;3.638;2023-12-07T07:28:15;28.50;;;12.60;;
78612;SDS011;67933;51.060;3.638;2023-12-07T07:30:41;31.45;;;13.45;;
78612;SDS011;67933;51.060;3.638;2023-12-07T07:33:06;33.45;;;13.07;;
78612;SDS011;67933;51.060;3.638;2023-12-07T07:35:31;33.30;;;14.05;;
78612;SDS011;67933;51.060;3.638;2023-12-07T07:37:57;29.70;;;11.80;;
78612;SDS011;67933;51.060;3.638;2023-12-07T07:40:23;33.13;;;12.45;;
78612;SDS011;67933;51.060;3.638;2023-12-07T07:42:49;35.63;;;13.70;;
78612;SDS011;67933;51.060;3.638;2023-12-07T07:45:15;25.42;;;12.00;;
78612;SDS011;67933;51.060;3.638;2023-12-07T07:47:41;32.40;;;13.60;;
78612;SDS011;67933;51.060;3.638;2023-12-07T07:50:07;30.15;;;12.25;;
78612;SDS011;67933;51.060;3.638;2023-12-07T07:52:33;29.17;;;12.65;;
78612;SDS011;67933;51.060;3.638;2023-12-07T07:54:59;30.17;;;13.25;;
78612;SDS011;67933;51.060;3.638;2023-12-07T07:57:31;29.48;;;13.32;;
78612;SDS011;67933;51.060;3.638;2023-12-07T07:59:56;31.45;;;13.25;;
78612;SDS011;67933;51.060;3.638;2023-12-07T08:02:23;28.25;;;11.68;;
78612;SDS011;67933;51.060;3.638;2023-12-07T08:04:48;33.70;;;13.68;;
78612;SDS011;67933;51.060;3.638;2023-12-07T08:07:14;29.25;;;11.50;;
78612;SDS011;67933;51.060;3.638;2023-12-07T08:09:39;26.42;;;12.25;;
78612;SDS011;67933;51.060;3.638;2023-12-07T08:12:05;33.00;;;13.38;;
78612;SDS011;67933;51.060;3.638;2023-12-07T08:14:33;30.33;;;12.73;;
78612;SDS011;67933;51.060;3.638;2023-12-07T08:17:00;27.02;;;12.10;;
78612;SDS011;67933;51.060;3.638;2023-12-07T08:19:25;31.35;;;12.48;;
78612;SDS011;67933;51.060;3.638;2023-12-07T08:21:51;29.50;;;12.07;;
78612;SDS011;67933;51.060;3.638;2023-12-07T08:24:16;32.58;;;11.45;;
78612;SDS011;67933;51.060;3.638;2023-12-07T08:26:42;26.58;;;11.73;;
78612;SDS011;67933;51.060;3.638;2023-12-07T08:29:07;30.08;;;12.80;;
78612;SDS011;67933;51.060;3.638;2023-12-07T08:31:33;28.88;;;11.90;;
78612;SDS011;67933;51.060;3.638;2023-12-07T08:33:58;35.80;;;13.23;;
78612;SDS011;67933;51.060;3.638;2023-12-07T08:36:25;33.67;;;13.40;;
78612;SDS011;67933;51.060;3.638;2023-12-07T08:38:51;27.80;;;12.55;;
78612;SDS011;67933;51.060;3.638;2023-12-07T08:41:16;28.80;;;13.02;;
78612;SDS011;67933;51.060;3.638;2023-12-07T08:43:42;29.25;;;12.27;;
78612;SDS011;67933;51.060;3.638;2023-12-07T08:46:07;27.50;;;13.60;;
78612;SDS011;67933;51.060;3.638;2023-12-07T08:48:33;29.85;;;13.93;;
78612;SDS011;67933;51.060;3.638;2023-12-07T08:50:59;30.38;;;11.80;;
78612;SDS011;67933;51.060;3.638;2023-12-07T08:53:25;29.38;;;13.75;;
78612;SDS011;67933;51.060;3.638;2023-12-07T08:55:51;26.40;;;11.85;;
78612;SDS011;67933;51.060;3.638;2023-12-07T08:58:17;26.38;;;11.73;;
78612;SDS011;67933;51.060;3.638;2023-12-07T09:00:42;24.02;;;10.77;;
78612;SDS011;67933;51.060;3.638;2023-12-07T09:03:08;29.08;;;12.55;;
78612;SDS011;67933;51.060;3.638;2023-12-07T09:05:34;26.98;;;11.55;;
78612;SDS011;67933;51.060;3.638;2023-12-07T09:07:59;21.45;;;10.85;;
78612;SDS011;67933;51.060;3.638;2023-12-07T09:10:25;31.95;;;12.93;;
78612;SDS011;67933;51.060;3.638;2023-12-07T09:12:50;25.20;;;10.15;;
78612;SDS011;67933;51.060;3.638;2023-12-07T09:15:15;24.27;;;11.48;;
78612;SDS011;67933;51.060;3.638;2023-12-07T09:17:41;25.98;;;11.10;;
78612;SDS011;67933;51.060;3.638;2023-12-07T09:20:10;22.08;;;10.18;;
78612;SDS011;67933;51.060;3.638;2023-12-07T09:22:45;19.85;;;9.70;;
78612;SDS011;67933;51.060;3.638;2023-12-07T09:25:12;21.33;;;10.18;;
78612;SDS011;67933;51.060;3.638;2023-12-07T09:27:40;23.90;;;11.75;;
78612;SDS011;67933;51.060;3.638;2023-12-07T09:30:07;25.67;;;10.55;;
78612;SDS011;67933;51.060;3.638;2023-12-07T09:32:40;22.65;;;11.65;;
78612;SDS011;67933;51.060;3.638;2023-12-07T09:35:07;24.60;;;10.35;;
78612;SDS011;67933;51.060;3.638;2023-12-07T09:37:43;20.67;;;10.20;;
78612;SDS011;67933;51.060;3.638;2023-12-07T09:40:13;22.50;;;10.05;;
78612;SDS011;67933;51.060;3.638;2023-12-07T09:42:40;21.65;;;10.13;;
78612;SDS011;67933;51.060;3.638;2023-12-07T09:45:08;21.80;;;9.13;;
78612;SDS011;67933;51.060;3.638;2023-12-07T09:47:34;17.35;;;9.05;;
78612;SDS011;67933;51.060;3.638;2023-12-07T09:50:02;20.20;;;9.25;;
78612;SDS011;67933;51.060;3.638;2023-12-07T09:52:28;18.30;;;8.70;;
78612;SDS011;67933;51.060;3.638;2023-12-07T09:54:54;19.42;;;9.05;;
78612;SDS011;67933;51.060;3.638;2023-12-07T09:57:21;17.73;;;8.73;;
78612;SDS011;67933;51.060;3.638;2023-12-07T09:59:47;16.00;;;7.97;;
78612;SDS011;67933;51.060;3.638;2023-12-07T10:02:13;14.55;;;8.00;;
78612;SDS011;67933;51.060;3.638;2023-12-07T10:04:40;16.15;;;8.15;;
78612;SDS011;67933;51.060;3.638;2023-12-07T10:07:05;16.20;;;8.48;;
78612;SDS011;67933;51.060;3.638;2023-12-07T10:09:34;13.48;;;7.90;;
78612;SDS011;67933;51.060;3.638;2023-12-07T10:12:03;12.63;;;7.82;;
78612;SDS011;67933;51.060;3.638;2023-12-07T10:14:30;15.07;;;8.65;;
78612;SDS011;67933;51.060;3.638;2023-12-07T10:16:55;14.55;;;7.07;;
78612;SDS011;67933;51.060;3.638;2023-12-07T10:19:22;15.70;;;7.45;;
78612;SDS011;67933;51.060;3.638;2023-12-07T10:21:48;15.15;;;8.05;;
78612;SDS011;67933;51.060;3.638;2023-12-07T10:24:15;13.70;;;7.72;;
78612;SDS011;67933;51.060;3.638;2023-12-07T10:26:42;15.45;;;7.75;;
78612;SDS011;67933;51.060;3.638;2023-12-07T10:29:09;15.63;;;7.72;;
78612;SDS011;67933;51.060;3.638;2023-12-07T10:31:35;14.25;;;8.05;;
78612;SDS011;67933;51.060;3.638;2023-12-07T10:34:01;13.52;;;7.35;;
78612;SDS011;67933;51.060;3.638;2023-12-07T10:36:27;17.20;;;7.95;;
78612;SDS011;67933;51.060;3.638;2023-12-07T10:38:53;13.13;;;7.25;;
78612;SDS011;67933;51.060;3.638;2023-12-07T10:41:20;14.27;;;7.45;;
78612;SDS011;67933;51.060;3.638;2023-12-07T10:43:53;15.00;;;8.30;;
78612;SDS011;67933;51.060;3.638;2023-12-07T10:46:22;16.25;;;8.10;;
78612;SDS011;67933;51.060;3.638;2023-12-07T10:48:48;17.15;;;8.05;;
78612;SDS011;67933;51.060;3.638;2023-12-07T10:54:25;12.35;;;6.80;;
78612;SDS011;67933;51.060;3.638;2023-12-07T10:56:59;13.90;;;7.00;;
78612;SDS011;67933;51.060;3.638;2023-12-07T10:59:28;16.33;;;8.20;;
78612;SDS011;67933;51.060;3.638;2023-12-07T11:01:56;11.93;;;6.80;;
78612;SDS011;67933;51.060;3.638;2023-12-07T11:04:22;12.98;;;7.43;;
78612;SDS011;67933;51.060;3.638;2023-12-07T11:06:49;13.98;;;7.50;;
78612;SDS011;67933;51.060;3.638;2023-12-07T11:09:23;16.33;;;7.65;;
78612;SDS011;67933;51.060;3.638;2023-12-07T11:12:05;13.55;;;7.32;;
78612;SDS011;67933;51.060;3.638;2023-12-07T11:14:37;12.75;;;7.05;;
78612;SDS011;67933;51.060;3.638;2023-12-07T11:17:04;14.35;;;7.57;;
78612;SDS011;67933;51.060;3.638;2023-12-07T11:21:58;14.13;;;7.45;;
78612;SDS011;67933;51.060;3.638;2023-12-07T11:24:24;15.35;;;7.95;;
78612;SDS011;67933;51.060;3.638;2023-12-07T11:26:53;13.00;;;7.15;;
78612;SDS011;67933;51.060;3.638;2023-12-07T11:29:20;14.23;;;7.40;;
78612;SDS011;67933;51.060;3.638;2023-12-07T11:31:46;15.45;;;7.40;;
78612;SDS011;67933;51.060;3.638;2023-12-07T11:34:13;13.75;;;7.72;;
78612;SDS011;67933;51.060;3.638;2023-12-07T11:36:40;15.77;;;7.35;;
78612;SDS011;67933;51.060;3.638;2023-12-07T11:41:45;13.52;;;6.75;;
78612;SDS011;67933;51.060;3.638;2023-12-07T11:44:15;13.98;;;6.05;;
78612;SDS011;67933;51.060;3.638;2023-12-07T11:46:42;16.60;;;7.45;;
78612;SDS011;67933;51.060;3.638;2023-12-07T11:49:08;13.23;;;7.72;;
78612;SDS011;67933;51.060;3.638;2023-12-07T11:51:35;15.40;;;6.78;;
78612;SDS011;67933;51.060;3.638;2023-12-07T11:54:01;12.40;;;6.53;;
78612;SDS011;67933;51.060;3.638;2023-12-07T11:56:26;14.80;;;6.75;;
78612;SDS011;67933;51.060;3.638;2023-12-07T11:58:52;12.27;;;6.85;;
78612;SDS011;67933;51.060;3.638;2023-12-07T12:01:17;11.88;;;6.25;;
78612;SDS011;67933;51.060;3.638;2023-12-07T12:03:43;14.30;;;6.70;;
78612;SDS011;67933;51.060;3.638;2023-12-07T12:06:09;11.40;;;5.95;;
78612;SDS011;67933;51.060;3.638;2023-12-07T12:08:36;11.32;;;6.10;;
78612;SDS011;67933;51.060;3.638;2023-12-07T12:11:02;12.02;;;7.22;;
78612;SDS011;67933;51.060;3.638;2023-12-07T12:13:28;11.00;;;5.78;;
78612;SDS011;67933;51.060;3.638;2023-12-07T12:15:59;12.73;;;6.05;;
78612;SDS011;67933;51.060;3.638;2023-12-07T12:18:25;11.82;;;5.75;;
78612;SDS011;67933;51.060;3.638;2023-12-07T12:20:53;10.93;;;6.45;;
78612;SDS011;67933;51.060;3.638;2023-12-07T12:23:19;12.23;;;5.97;;
78612;SDS011;67933;51.060;3.638;2023-12-07T12:25:45;12.65;;;6.53;;
78612;SDS011;67933;51.060;3.638;2023-12-07T12:28:15;12.38;;;6.68;;
78612;SDS011;67933;51.060;3.638;2023-12-07T12:30:42;14.75;;;5.65;;
78612;SDS011;67933;51.060;3.638;2023-12-07T12:33:08;12.73;;;6.22;;
78612;SDS011;67933;51.060;3.638;2023-12-07T12:35:33;8.85;;;5.10;;
78612;SDS011;67933;51.060;3.638;2023-12-07T12:37:59;14.88;;;6.22;;
78612;SDS011;67933;51.060;3.638;2023-12-07T12:40:26;12.77;;;7.25;;
78612;SDS011;67933;51.060;3.638;2023-12-07T12:42:54;12.20;;;5.95;;
78612;SDS011;67933;51.060;3.638;2023-12-07T12:45:20;12.90;;;6.47;;
78612;SDS011;67933;51.060;3.638;2023-12-07T12:47:46;9.77;;;5.65;;
78612;SDS011;67933;51.060;3.638;2023-12-07T12:50:32;10.38;;;5.30;;
78612;SDS011;67933;51.060;3.638;2023-12-07T12:53:07;9.10;;;5.43;;
78612;SDS011;67933;51.060;3.638;2023-12-07T12:55:35;11.02;;;5.20;;
78612;SDS011;67933;51.060;3.638;2023-12-07T12:58:08;11.43;;;5.93;;
78612;SDS011;67933;51.060;3.638;2023-12-07T13:00:34;11.73;;;5.25;;
78612;SDS011;67933;51.060;3.638;2023-12-07T13:03:04;8.95;;;4.93;;
78612;SDS011;67933;51.060;3.638;2023-12-07T13:05:30;9.02;;;4.75;;
78612;SDS011;67933;51.060;3.638;2023-12-07T13:07:57;8.85;;;4.53;;
78612;SDS011;67933;51.060;3.638;2023-12-07T13:10:24;8.73;;;4.72;;
78612;SDS011;67933;51.060;3.638;2023-12-07T13:12:50;9.18;;;5.45;;
78612;SDS011;67933;51.060;3.638;2023-12-07T13:15:15;9.15;;;5.07;;
78612;SDS011;67933;51.060;3.638;2023-12-07T13:17:41;7.15;;;5.40;;
78612;SDS011;67933;51.060;3.638;2023-12-07T13:20:07;8.55;;;4.95;;
78612;SDS011;67933;51.060;3.638;2023-12-07T13:22:38;6.20;;;4.60;;
78612;SDS011;67933;51.060;3.638;2023-12-07T13:25:04;8.63;;;5.15;;
78612;SDS011;67933;51.060;3.638;2023-12-07T13:27:32;8.98;;;5.28;;
78612;SDS011;67933;51.060;3.638;2023-12-07T13:29:58;10.90;;;5.38;;
78612;SDS011;67933;51.060;3.638;2023-12-07T13:32:24;8.00;;;4.90;;
78612;SDS011;67933;51.060;3.638;2023-12-07T13:34:49;8.43;;;4.72;;
78612;SDS011;67933;51.060;3.638;2023-12-07T13:37:14;7.47;;;4.13;;
78612;SDS011;67933;51.060;3.638;2023-12-07T13:39:40;7.50;;;5.07;;
78612;SDS011;67933;51.060;3.638;2023-12-07T13:42:08;8.40;;;5.10;;
78612;SDS011;67933;51.060;3.638;2023-12-07T13:44:35;8.75;;;4.22;;
78612;SDS011;67933;51.060;3.638;2023-12-07T13:47:00;8.18;;;4.00;;
78612;SDS011;67933;51.060;3.638;2023-12-07T13:49:26;9.93;;;4.10;;
78612;SDS011;67933;51.060;3.638;2023-12-07T13:51:51;8.63;;;4.55;;
78612;SDS011;67933;51.060;3.638;2023-12-07T13:54:17;8.27;;;4.28;;
78612;SDS011;67933;51.060;3.638;2023-12-07T13:56:42;5.90;;;3.92;;
78612;SDS011;67933;51.060;3.638;2023-12-07T13:59:08;8.68;;;4.72;;
78612;SDS011;67933;51.060;3.638;2023-12-07T14:01:35;7.18;;;4.20;;
78612;SDS011;67933;51.060;3.638;2023-12-07T14:04:01;10.40;;;5.20;;
78612;SDS011;67933;51.060;3.638;2023-12-07T14:06:27;8.43;;;5.10;;
78612;SDS011;67933;51.060;3.638;2023-12-07T14:08:53;8.50;;;4.55;;
78612;SDS011;67933;51.060;3.638;2023-12-07T14:11:18;8.07;;;4.60;;
78612;SDS011;67933;51.060;3.638;2023-12-07T14:13:44;6.35;;;4.63;;
78612;SDS011;67933;51.060;3.638;2023-12-07T14:16:13;8.73;;;4.65;;
78612;SDS011;67933;51.060;3.638;2023-12-07T14:18:39;10.27;;;4.93;;
78612;SDS011;67933;51.060;3.638;2023-12-07T14:21:05;9.10;;;4.50;;
78612;SDS011;67933;51.060;3.638;2023-12-07T14:23:30;5.88;;;4.72;;
78612;SDS011;67933;51.060;3.638;2023-12-07T14:25:56;9.90;;;4.80;;
78612;SDS011;67933;51.060;3.638;2023-12-07T14:28:25;11.82;;;4.80;;
78612;SDS011;67933;51.060;3.638;2023-12-07T14:30:53;8.23;;;4.70;;